sensor_id;sensor_type;location;lat;lon;timestamp;P1;durP1;ratioP1;P2;durP2;ratioP2
64208;SDS011;50527;52.414;13.226;2023-07-13T00:01:15;1.02;;;0.43;;
64208;SDS011;50527;52.414;13.226;2023-07-13T00:03:42;2.25;;;0.50;;
64208;SDS011;50527;52.414;13.226;2023-07-13T00:06:07;3.35;;;0.65;;
64208;SDS011;50527;52.414;13.226;2023-07-13T00:08:34;1.73;;;0.60;;
64208;SDS011;50527;52.414;13.226;2023-07-13T00:11:00;2.17;;;0.60;;
64208;SDS011;50527;52.414;13.226;2023-07-13T00:13:26;2.42;;;0.50;;
64208;SDS011;50527;52.414;13.226;2023-07-13T00:15:52;1.85;;;0.60;;
64208;SDS011;50527;52.414;13.226;2023-07-13T00:18:19;3.63;;;0.60;;
64208;SDS011;50527;52.414;13.226;2023-07-13T00:20:45;1.52;;;0.47;;
64208;SDS011;50527;52.414;13.226;2023-07-13T00:23:10;5.40;;;0.60;;
64208;SDS011;50527;52.414;13.226;2023-07-13T00:25:36;5.35;;;0.43;;
64208;SDS011;50527;52.414;13.226;2023-07-13T00:28:02;3.53;;;0.50;;
64208;SDS011;50527;52.414;13.226;2023-07-13T00:30:28;9.05;;;0.82;;
64208;SDS011;50527;52.414;13.226;2023-07-13T00:32:53;5.18;;;0.73;;
64208;SDS011;50527;52.414;13.226;2023-07-13T00:35:19;2.15;;;0.60;;
64208;SDS011;50527;52.414;13.226;2023-07-13T00:37:44;2.08;;;0.60;;
64208;SDS011;50527;52.414;13.226;2023-07-13T00:40:14;1.75;;;0.43;;
64208;SDS011;50527;52.414;13.226;2023-07-13T00:42:40;0.73;;;0.32;;
64208;SDS011;50527;52.414;13.226;2023-07-13T00:47:41;4.00;;;0.82;;
64208;SDS011;50527;52.414;13.226;2023-07-13T00:50:07;1.75;;;0.60;;
64208;SDS011;50527;52.414;13.226;2023-07-13T00:52:38;3.10;;;0.70;;
64208;SDS011;50527;52.414;13.226;2023-07-13T00:55:06;1.42;;;0.55;;
64208;SDS011;50527;52.414;13.226;2023-07-13T00:57:34;1.52;;;0.50;;
64208;SDS011;50527;52.414;13.226;2023-07-13T01:00:00;1.58;;;0.40;;
64208;SDS011;50527;52.414;13.226;2023-07-13T01:02:30;2.72;;;0.50;;
64208;SDS011;50527;52.414;13.226;2023-07-13T01:04:56;1.38;;;0.43;;
64208;SDS011;50527;52.414;13.226;2023-07-13T01:07:21;2.92;;;0.65;;
64208;SDS011;50527;52.414;13.226;2023-07-13T01:09:47;1.65;;;0.57;;
64208;SDS011;50527;52.414;13.226;2023-07-13T01:12:13;2.83;;;0.60;;
64208;SDS011;50527;52.414;13.226;2023-07-13T01:14:38;1.25;;;0.47;;
64208;SDS011;50527;52.414;13.226;2023-07-13T01:17:04;1.15;;;0.40;;
64208;SDS011;50527;52.414;13.226;2023-07-13T01:22:01;2.30;;;0.50;;
64208;SDS011;50527;52.414;13.226;2023-07-13T01:24:27;1.35;;;0.60;;
64208;SDS011;50527;52.414;13.226;2023-07-13T01:26:53;1.80;;;0.50;;
64208;SDS011;50527;52.414;13.226;2023-07-13T01:29:19;3.08;;;0.60;;
64208;SDS011;50527;52.414;13.226;2023-07-13T01:31:45;2.05;;;0.47;;
64208;SDS011;50527;52.414;13.226;2023-07-13T01:34:11;1.50;;;0.47;;
64208;SDS011;50527;52.414;13.226;2023-07-13T01:36:37;4.07;;;0.88;;
64208;SDS011;50527;52.414;13.226;2023-07-13T01:39:02;3.40;;;0.65;;
64208;SDS011;50527;52.414;13.226;2023-07-13T01:41:28;2.70;;;0.45;;
64208;SDS011;50527;52.414;13.226;2023-07-13T01:43:54;5.25;;;1.05;;
64208;SDS011;50527;52.414;13.226;2023-07-13T01:46:19;1.92;;;0.70;;
64208;SDS011;50527;52.414;13.226;2023-07-13T01:48:44;2.00;;;0.47;;
64208;SDS011;50527;52.414;13.226;2023-07-13T01:51:10;3.35;;;0.50;;
64208;SDS011;50527;52.414;13.226;2023-07-13T01:53:35;7.85;;;1.00;;
64208;SDS011;50527;52.414;13.226;2023-07-13T01:56:01;3.17;;;0.80;;
64208;SDS011;50527;52.414;13.226;2023-07-13T01:58:27;1.55;;;0.45;;
64208;SDS011;50527;52.414;13.226;2023-07-13T02:00:52;2.75;;;0.70;;
64208;SDS011;50527;52.414;13.226;2023-07-13T02:03:18;2.10;;;0.60;;
64208;SDS011;50527;52.414;13.226;2023-07-13T02:05:44;4.38;;;0.82;;
64208;SDS011;50527;52.414;13.226;2023-07-13T02:08:10;2.40;;;0.70;;
64208;SDS011;50527;52.414;13.226;2023-07-13T02:10:36;3.80;;;0.68;;
64208;SDS011;50527;52.414;13.226;2023-07-13T02:13:04;4.78;;;0.60;;
64208;SDS011;50527;52.414;13.226;2023-07-13T02:15:30;3.50;;;0.70;;
64208;SDS011;50527;52.414;13.226;2023-07-13T02:17:56;2.03;;;0.60;;
64208;SDS011;50527;52.414;13.226;2023-07-13T02:20:21;1.67;;;0.60;;
64208;SDS011;50527;52.414;13.226;2023-07-13T02:22:47;1.98;;;0.70;;
64208;SDS011;50527;52.414;13.226;2023-07-13T02:25:12;2.92;;;0.65;;
64208;SDS011;50527;52.414;13.226;2023-07-13T02:27:39;2.53;;;0.85;;
64208;SDS011;50527;52.414;13.226;2023-07-13T02:30:04;3.60;;;1.00;;
64208;SDS011;50527;52.414;13.226;2023-07-13T02:32:31;1.58;;;0.52;;
64208;SDS011;50527;52.414;13.226;2023-07-13T02:34:56;4.30;;;0.73;;
64208;SDS011;50527;52.414;13.226;2023-07-13T02:37:22;2.67;;;0.88;;
64208;SDS011;50527;52.414;13.226;2023-07-13T02:39:48;6.13;;;0.70;;
64208;SDS011;50527;52.414;13.226;2023-07-13T02:42:13;0.95;;;0.57;;
64208;SDS011;50527;52.414;13.226;2023-07-13T02:44:39;1.98;;;0.88;;
64208;SDS011;50527;52.414;13.226;2023-07-13T02:47:04;4.13;;;0.90;;
64208;SDS011;50527;52.414;13.226;2023-07-13T02:49:30;5.10;;;1.00;;
64208;SDS011;50527;52.414;13.226;2023-07-13T02:51:56;4.43;;;0.80;;
64208;SDS011;50527;52.414;13.226;2023-07-13T02:54:21;2.28;;;0.77;;
64208;SDS011;50527;52.414;13.226;2023-07-13T02:56:46;2.80;;;0.77;;
64208;SDS011;50527;52.414;13.226;2023-07-13T02:59:12;2.65;;;0.95;;
64208;SDS011;50527;52.414;13.226;2023-07-13T03:01:37;2.67;;;0.70;;
64208;SDS011;50527;52.414;13.226;2023-07-13T03:04:03;3.95;;;0.80;;
64208;SDS011;50527;52.414;13.226;2023-07-13T03:06:30;2.17;;;0.80;;
64208;SDS011;50527;52.414;13.226;2023-07-13T03:08:56;4.22;;;0.80;;
64208;SDS011;50527;52.414;13.226;2023-07-13T03:11:21;1.38;;;0.60;;
64208;SDS011;50527;52.414;13.226;2023-07-13T03:13:47;1.77;;;0.70;;
64208;SDS011;50527;52.414;13.226;2023-07-13T03:16:13;2.17;;;0.63;;
64208;SDS011;50527;52.414;13.226;2023-07-13T03:18:41;1.30;;;0.80;;
64208;SDS011;50527;52.414;13.226;2023-07-13T03:21:07;5.72;;;0.80;;
64208;SDS011;50527;52.414;13.226;2023-07-13T03:23:32;2.90;;;0.68;;
64208;SDS011;50527;52.414;13.226;2023-07-13T03:26:01;6.38;;;0.73;;
64208;SDS011;50527;52.414;13.226;2023-07-13T03:28:29;3.35;;;0.95;;
64208;SDS011;50527;52.414;13.226;2023-07-13T03:31:02;3.60;;;0.90;;
64208;SDS011;50527;52.414;13.226;2023-07-13T03:33:29;1.80;;;0.73;;
64208;SDS011;50527;52.414;13.226;2023-07-13T03:35:55;1.40;;;0.70;;
64208;SDS011;50527;52.414;13.226;2023-07-13T03:38:21;1.17;;;0.50;;
64208;SDS011;50527;52.414;13.226;2023-07-13T03:40:46;1.13;;;0.70;;
64208;SDS011;50527;52.414;13.226;2023-07-13T03:43:12;2.10;;;0.75;;
64208;SDS011;50527;52.414;13.226;2023-07-13T03:45:37;2.03;;;0.70;;
64208;SDS011;50527;52.414;13.226;2023-07-13T03:48:03;2.33;;;0.82;;
64208;SDS011;50527;52.414;13.226;2023-07-13T03:50:30;1.60;;;0.75;;
64208;SDS011;50527;52.414;13.226;2023-07-13T03:52:56;0.68;;;0.50;;
64208;SDS011;50527;52.414;13.226;2023-07-13T03:55:23;7.82;;;1.17;;
64208;SDS011;50527;52.414;13.226;2023-07-13T03:57:54;2.88;;;0.70;;
64208;SDS011;50527;52.414;13.226;2023-07-13T04:00:23;2.45;;;0.70;;
64208;SDS011;50527;52.414;13.226;2023-07-13T04:02:49;1.80;;;0.70;;
64208;SDS011;50527;52.414;13.226;2023-07-13T04:05:15;2.33;;;0.65;;
64208;SDS011;50527;52.414;13.226;2023-07-13T04:07:40;2.15;;;0.68;;
64208;SDS011;50527;52.414;13.226;2023-07-13T04:10:06;2.83;;;0.85;;
64208;SDS011;50527;52.414;13.226;2023-07-13T04:12:32;2.55;;;0.90;;
64208;SDS011;50527;52.414;13.226;2023-07-13T04:14:57;1.42;;;0.68;;
64208;SDS011;50527;52.414;13.226;2023-07-13T04:17:23;3.05;;;0.90;;
64208;SDS011;50527;52.414;13.226;2023-07-13T04:19:48;1.02;;;0.55;;
64208;SDS011;50527;52.414;13.226;2023-07-13T04:22:14;1.90;;;0.70;;
64208;SDS011;50527;52.414;13.226;2023-07-13T04:24:39;2.20;;;0.70;;
64208;SDS011;50527;52.414;13.226;2023-07-13T04:27:05;2.85;;;0.80;;
64208;SDS011;50527;52.414;13.226;2023-07-13T04:29:31;1.80;;;0.80;;
64208;SDS011;50527;52.414;13.226;2023-07-13T04:31:57;4.68;;;0.95;;
64208;SDS011;50527;52.414;13.226;2023-07-13T04:34:22;1.80;;;0.77;;
64208;SDS011;50527;52.414;13.226;2023-07-13T04:36:49;6.78;;;0.90;;
64208;SDS011;50527;52.414;13.226;2023-07-13T04:39:14;6.75;;;0.75;;
64208;SDS011;50527;52.414;13.226;2023-07-13T04:41:40;1.77;;;0.70;;
64208;SDS011;50527;52.414;13.226;2023-07-13T04:44:05;3.08;;;0.77;;
64208;SDS011;50527;52.414;13.226;2023-07-13T04:46:31;1.98;;;0.70;;
64208;SDS011;50527;52.414;13.226;2023-07-13T04:48:56;2.85;;;0.88;;
64208;SDS011;50527;52.414;13.226;2023-07-13T04:51:23;2.10;;;0.50;;
64208;SDS011;50527;52.414;13.226;2023-07-13T04:53:49;2.05;;;0.73;;
64208;SDS011;50527;52.414;13.226;2023-07-13T04:56:14;2.13;;;0.50;;
64208;SDS011;50527;52.414;13.226;2023-07-13T04:58:40;1.27;;;0.52;;
64208;SDS011;50527;52.414;13.226;2023-07-13T05:01:05;2.60;;;0.70;;
64208;SDS011;50527;52.414;13.226;2023-07-13T05:03:31;2.17;;;0.73;;
64208;SDS011;50527;52.414;13.226;2023-07-13T05:06:00;1.73;;;0.55;;
64208;SDS011;50527;52.414;13.226;2023-07-13T05:08:28;1.58;;;0.60;;
64208;SDS011;50527;52.414;13.226;2023-07-13T05:10:53;1.77;;;0.60;;
64208;SDS011;50527;52.414;13.226;2023-07-13T05:13:19;2.80;;;0.80;;
64208;SDS011;50527;52.414;13.226;2023-07-13T05:15:45;1.40;;;0.50;;
64208;SDS011;50527;52.414;13.226;2023-07-13T05:18:12;2.60;;;0.68;;
64208;SDS011;50527;52.414;13.226;2023-07-13T05:20:37;2.10;;;0.50;;
64208;SDS011;50527;52.414;13.226;2023-07-13T05:23:03;2.53;;;0.65;;
64208;SDS011;50527;52.414;13.226;2023-07-13T05:25:28;0.98;;;0.50;;
64208;SDS011;50527;52.414;13.226;2023-07-13T05:27:54;1.75;;;0.43;;
64208;SDS011;50527;52.414;13.226;2023-07-13T05:30:20;4.30;;;0.65;;
64208;SDS011;50527;52.414;13.226;2023-07-13T05:32:46;2.80;;;0.65;;
64208;SDS011;50527;52.414;13.226;2023-07-13T05:35:11;1.55;;;0.52;;
64208;SDS011;50527;52.414;13.226;2023-07-13T05:37:37;2.38;;;0.50;;
64208;SDS011;50527;52.414;13.226;2023-07-13T05:40:03;1.95;;;0.65;;
64208;SDS011;50527;52.414;13.226;2023-07-13T05:42:29;1.98;;;0.50;;
64208;SDS011;50527;52.414;13.226;2023-07-13T05:44:56;4.05;;;0.68;;
64208;SDS011;50527;52.414;13.226;2023-07-13T05:47:21;4.97;;;0.57;;
64208;SDS011;50527;52.414;13.226;2023-07-13T05:49:47;1.58;;;0.55;;
64208;SDS011;50527;52.414;13.226;2023-07-13T05:52:12;2.53;;;0.40;;
64208;SDS011;50527;52.414;13.226;2023-07-13T05:54:38;1.35;;;0.40;;
64208;SDS011;50527;52.414;13.226;2023-07-13T05:57:03;1.60;;;0.40;;
64208;SDS011;50527;52.414;13.226;2023-07-13T05:59:29;3.42;;;0.55;;
64208;SDS011;50527;52.414;13.226;2023-07-13T06:01:54;1.95;;;0.70;;
64208;SDS011;50527;52.414;13.226;2023-07-13T06:04:20;5.53;;;0.70;;
64208;SDS011;50527;52.414;13.226;2023-07-13T06:06:45;2.67;;;0.47;;
64208;SDS011;50527;52.414;13.226;2023-07-13T06:09:12;2.22;;;0.60;;
64208;SDS011;50527;52.414;13.226;2023-07-13T06:11:38;2.35;;;0.60;;
64208;SDS011;50527;52.414;13.226;2023-07-13T06:14:03;1.85;;;0.45;;
64208;SDS011;50527;52.414;13.226;2023-07-13T06:16:29;0.70;;;0.35;;
64208;SDS011;50527;52.414;13.226;2023-07-13T06:18:55;4.45;;;0.70;;
64208;SDS011;50527;52.414;13.226;2023-07-13T06:21:21;2.78;;;0.43;;
64208;SDS011;50527;52.414;13.226;2023-07-13T06:23:48;2.95;;;0.60;;
64208;SDS011;50527;52.414;13.226;2023-07-13T06:26:16;3.28;;;0.80;;
64208;SDS011;50527;52.414;13.226;2023-07-13T06:28:43;2.58;;;0.70;;
64208;SDS011;50527;52.414;13.226;2023-07-13T06:31:09;2.88;;;0.60;;
64208;SDS011;50527;52.414;13.226;2023-07-13T06:33:36;2.15;;;0.52;;
64208;SDS011;50527;52.414;13.226;2023-07-13T06:36:03;1.10;;;0.40;;
64208;SDS011;50527;52.414;13.226;2023-07-13T06:38:29;1.27;;;0.40;;
64208;SDS011;50527;52.414;13.226;2023-07-13T06:40:55;1.35;;;0.47;;
64208;SDS011;50527;52.414;13.226;2023-07-13T06:43:21;3.70;;;0.50;;
64208;SDS011;50527;52.414;13.226;2023-07-13T06:45:46;3.47;;;0.52;;
64208;SDS011;50527;52.414;13.226;2023-07-13T06:48:15;2.15;;;0.45;;
64208;SDS011;50527;52.414;13.226;2023-07-13T06:50:41;2.42;;;0.50;;
64208;SDS011;50527;52.414;13.226;2023-07-13T06:53:07;1.38;;;0.40;;
64208;SDS011;50527;52.414;13.226;2023-07-13T06:55:33;1.75;;;0.50;;
64208;SDS011;50527;52.414;13.226;2023-07-13T06:57:59;5.32;;;0.52;;
64208;SDS011;50527;52.414;13.226;2023-07-13T07:00:24;0.77;;;0.30;;
64208;SDS011;50527;52.414;13.226;2023-07-13T07:02:50;6.80;;;0.68;;
64208;SDS011;50527;52.414;13.226;2023-07-13T07:05:15;1.00;;;0.38;;
64208;SDS011;50527;52.414;13.226;2023-07-13T07:07:41;0.82;;;0.30;;
64208;SDS011;50527;52.414;13.226;2023-07-13T07:10:06;2.55;;;0.50;;
64208;SDS011;50527;52.414;13.226;2023-07-13T07:12:32;3.88;;;0.40;;
64208;SDS011;50527;52.414;13.226;2023-07-13T07:14:58;0.90;;;0.25;;
64208;SDS011;50527;52.414;13.226;2023-07-13T07:17:23;2.38;;;0.55;;
64208;SDS011;50527;52.414;13.226;2023-07-13T07:19:50;3.50;;;0.50;;
64208;SDS011;50527;52.414;13.226;2023-07-13T07:22:15;2.55;;;0.50;;
64208;SDS011;50527;52.414;13.226;2023-07-13T07:24:41;1.63;;;0.30;;
64208;SDS011;50527;52.414;13.226;2023-07-13T07:27:06;3.40;;;0.40;;
64208;SDS011;50527;52.414;13.226;2023-07-13T07:29:32;2.42;;;0.32;;
64208;SDS011;50527;52.414;13.226;2023-07-13T07:31:58;3.47;;;0.50;;
64208;SDS011;50527;52.414;13.226;2023-07-13T07:34:25;1.55;;;0.38;;
64208;SDS011;50527;52.414;13.226;2023-07-13T07:36:50;1.38;;;0.30;;
64208;SDS011;50527;52.414;13.226;2023-07-13T07:39:16;1.20;;;0.40;;
64208;SDS011;50527;52.414;13.226;2023-07-13T07:41:42;1.90;;;0.30;;
64208;SDS011;50527;52.414;13.226;2023-07-13T07:44:08;0.82;;;0.30;;
64208;SDS011;50527;52.414;13.226;2023-07-13T07:46:35;1.13;;;0.22;;
64208;SDS011;50527;52.414;13.226;2023-07-13T07:49:00;0.90;;;0.20;;
64208;SDS011;50527;52.414;13.226;2023-07-13T07:51:26;1.27;;;0.35;;
64208;SDS011;50527;52.414;13.226;2023-07-13T07:53:51;2.05;;;0.30;;
64208;SDS011;50527;52.414;13.226;2023-07-13T07:56:17;2.83;;;0.40;;
64208;SDS011;50527;52.414;13.226;2023-07-13T07:58:43;0.68;;;0.30;;
64208;SDS011;50527;52.414;13.226;2023-07-13T08:01:08;3.47;;;0.60;;
64208;SDS011;50527;52.414;13.226;2023-07-13T08:03:34;3.08;;;0.45;;
64208;SDS011;50527;52.414;13.226;2023-07-13T08:05:59;2.95;;;0.40;;
64208;SDS011;50527;52.414;13.226;2023-07-13T08:08:25;1.35;;;0.50;;
64208;SDS011;50527;52.414;13.226;2023-07-13T08:10:50;4.82;;;0.55;;
64208;SDS011;50527;52.414;13.226;2023-07-13T08:13:16;2.65;;;0.43;;
64208;SDS011;50527;52.414;13.226;2023-07-13T08:15:42;4.68;;;0.40;;
64208;SDS011;50527;52.414;13.226;2023-07-13T08:18:07;7.07;;;0.68;;
64208;SDS011;50527;52.414;13.226;2023-07-13T08:20:36;1.48;;;0.50;;
64208;SDS011;50527;52.414;13.226;2023-07-13T08:23:03;1.85;;;0.38;;
64208;SDS011;50527;52.414;13.226;2023-07-13T08:25:28;1.55;;;0.30;;
64208;SDS011;50527;52.414;13.226;2023-07-13T08:27:54;1.90;;;0.45;;
64208;SDS011;50527;52.414;13.226;2023-07-13T08:30:20;4.57;;;0.40;;
64208;SDS011;50527;52.414;13.226;2023-07-13T08:32:45;1.00;;;0.20;;
64208;SDS011;50527;52.414;13.226;2023-07-13T08:35:10;0.85;;;0.22;;
64208;SDS011;50527;52.414;13.226;2023-07-13T08:37:36;1.15;;;0.30;;
64208;SDS011;50527;52.414;13.226;2023-07-13T08:40:02;1.60;;;0.40;;
64208;SDS011;50527;52.414;13.226;2023-07-13T08:42:44;1.27;;;0.40;;
64208;SDS011;50527;52.414;13.226;2023-07-13T08:47:52;1.83;;;0.50;;
64208;SDS011;50527;52.414;13.226;2023-07-13T08:50:23;0.65;;;0.30;;
64208;SDS011;50527;52.414;13.226;2023-07-13T08:52:53;1.43;;;0.20;;
64208;SDS011;50527;52.414;13.226;2023-07-13T08:55:22;2.22;;;0.40;;
64208;SDS011;50527;52.414;13.226;2023-07-13T09:02:59;2.22;;;0.45;;
64208;SDS011;50527;52.414;13.226;2023-07-13T09:05:36;1.63;;;0.40;;
64208;SDS011;50527;52.414;13.226;2023-07-13T09:08:19;2.40;;;0.43;;
64208;SDS011;50527;52.414;13.226;2023-07-13T09:11:31;1.48;;;0.22;;
64208;SDS011;50527;52.414;13.226;2023-07-13T09:14:33;3.78;;;0.60;;
64208;SDS011;50527;52.414;13.226;2023-07-13T09:17:03;4.80;;;0.45;;
64208;SDS011;50527;52.414;13.226;2023-07-13T09:19:33;3.05;;;0.55;;
64208;SDS011;50527;52.414;13.226;2023-07-13T09:22:01;2.13;;;0.40;;
64208;SDS011;50527;52.414;13.226;2023-07-13T09:24:36;2.03;;;0.50;;
64208;SDS011;50527;52.414;13.226;2023-07-13T09:27:03;1.77;;;0.40;;
64208;SDS011;50527;52.414;13.226;2023-07-13T09:29:39;1.02;;;0.47;;
64208;SDS011;50527;52.414;13.226;2023-07-13T09:32:12;3.92;;;0.55;;
64208;SDS011;50527;52.414;13.226;2023-07-13T09:34:41;1.15;;;0.40;;
64208;SDS011;50527;52.414;13.226;2023-07-13T09:37:06;2.53;;;0.50;;
64208;SDS011;50527;52.414;13.226;2023-07-13T09:39:36;2.10;;;0.50;;
64208;SDS011;50527;52.414;13.226;2023-07-13T09:42:20;1.48;;;0.40;;
64208;SDS011;50527;52.414;13.226;2023-07-13T09:47:16;1.45;;;0.50;;
64208;SDS011;50527;52.414;13.226;2023-07-13T09:49:55;1.05;;;0.43;;
64208;SDS011;50527;52.414;13.226;2023-07-13T09:52:23;2.28;;;0.50;;
64208;SDS011;50527;52.414;13.226;2023-07-13T09:54:51;4.22;;;0.50;;
64208;SDS011;50527;52.414;13.226;2023-07-13T09:57:22;1.75;;;0.50;;
64208;SDS011;50527;52.414;13.226;2023-07-13T09:59:49;2.47;;;0.60;;
64208;SDS011;50527;52.414;13.226;2023-07-13T10:02:27;3.25;;;0.45;;
64208;SDS011;50527;52.414;13.226;2023-07-13T10:05:01;1.63;;;0.45;;
64208;SDS011;50527;52.414;13.226;2023-07-13T10:07:32;3.83;;;0.70;;
64208;SDS011;50527;52.414;13.226;2023-07-13T10:10:12;4.32;;;0.50;;
64208;SDS011;50527;52.414;13.226;2023-07-13T10:12:44;0.70;;;0.30;;
64208;SDS011;50527;52.414;13.226;2023-07-13T10:15:18;2.95;;;0.60;;
64208;SDS011;50527;52.414;13.226;2023-07-13T10:17:46;1.23;;;0.38;;
64208;SDS011;50527;52.414;13.226;2023-07-13T10:20:12;2.03;;;0.50;;
64208;SDS011;50527;52.414;13.226;2023-07-13T10:22:43;2.42;;;0.40;;
64208;SDS011;50527;52.414;13.226;2023-07-13T10:25:19;3.45;;;0.50;;
64208;SDS011;50527;52.414;13.226;2023-07-13T10:27:50;2.80;;;0.52;;
64208;SDS011;50527;52.414;13.226;2023-07-13T10:30:21;2.90;;;0.55;;
64208;SDS011;50527;52.414;13.226;2023-07-13T10:32:50;2.20;;;0.50;;
64208;SDS011;50527;52.414;13.226;2023-07-13T10:35:18;3.03;;;0.60;;
64208;SDS011;50527;52.414;13.226;2023-07-13T10:38:01;2.47;;;0.60;;
64208;SDS011;50527;52.414;13.226;2023-07-13T10:40:35;3.47;;;0.60;;
64208;SDS011;50527;52.414;13.226;2023-07-13T10:43:09;2.42;;;0.52;;
64208;SDS011;50527;52.414;13.226;2023-07-13T10:45:59;1.75;;;0.50;;
64208;SDS011;50527;52.414;13.226;2023-07-13T10:48:25;2.15;;;0.50;;
64208;SDS011;50527;52.414;13.226;2023-07-13T10:50:51;1.35;;;0.50;;
64208;SDS011;50527;52.414;13.226;2023-07-13T10:53:31;2.85;;;0.50;;
64208;SDS011;50527;52.414;13.226;2023-07-13T10:58:39;2.20;;;0.50;;
64208;SDS011;50527;52.414;13.226;2023-07-13T11:03:33;3.50;;;0.70;;
64208;SDS011;50527;52.414;13.226;2023-07-13T11:06:11;0.57;;;0.40;;
64208;SDS011;50527;52.414;13.226;2023-07-13T11:18:47;4.60;;;0.67;;
64208;SDS011;50527;52.414;13.226;2023-07-13T11:21:18;3.38;;;0.70;;
64208;SDS011;50527;52.414;13.226;2023-07-13T11:23:52;3.85;;;0.52;;
64208;SDS011;50527;52.414;13.226;2023-07-13T11:29:33;1.73;;;0.40;;
64208;SDS011;50527;52.414;13.226;2023-07-13T11:32:20;3.45;;;0.52;;
64208;SDS011;50527;52.414;13.226;2023-07-13T11:34:51;1.42;;;0.35;;
64208;SDS011;50527;52.414;13.226;2023-07-13T11:37:18;0.85;;;0.47;;
64208;SDS011;50527;52.414;13.226;2023-07-13T11:39:44;1.05;;;0.50;;
64208;SDS011;50527;52.414;13.226;2023-07-13T11:42:13;3.55;;;0.50;;
64208;SDS011;50527;52.414;13.226;2023-07-13T11:44:43;1.63;;;0.65;;
64208;SDS011;50527;52.414;13.226;2023-07-13T11:47:19;2.22;;;0.50;;
64208;SDS011;50527;52.414;13.226;2023-07-13T11:49:50;1.27;;;0.30;;
64208;SDS011;50527;52.414;13.226;2023-07-13T11:52:19;4.35;;;0.60;;
64208;SDS011;50527;52.414;13.226;2023-07-13T11:54:49;0.80;;;0.40;;
64208;SDS011;50527;52.414;13.226;2023-07-13T12:00:00;2.13;;;0.40;;
64208;SDS011;50527;52.414;13.226;2023-07-13T12:02:37;2.45;;;0.30;;
64208;SDS011;50527;52.414;13.226;2023-07-13T12:05:09;1.73;;;0.50;;
64208;SDS011;50527;52.414;13.226;2023-07-13T12:07:37;1.85;;;0.38;;
64208;SDS011;50527;52.414;13.226;2023-07-13T12:12:56;1.65;;;0.47;;
64208;SDS011;50527;52.414;13.226;2023-07-13T12:15:23;1.40;;;0.40;;
64208;SDS011;50527;52.414;13.226;2023-07-13T12:17:53;1.02;;;0.28;;
64208;SDS011;50527;52.414;13.226;2023-07-13T12:20:23;3.67;;;0.40;;
64208;SDS011;50527;52.414;13.226;2023-07-13T12:22:51;1.30;;;0.40;;
64208;SDS011;50527;52.414;13.226;2023-07-13T12:25:17;1.17;;;0.40;;
64208;SDS011;50527;52.414;13.226;2023-07-13T12:27:47;1.00;;;0.30;;
64208;SDS011;50527;52.414;13.226;2023-07-13T12:32:55;2.33;;;0.57;;
64208;SDS011;50527;52.414;13.226;2023-07-13T12:35:26;3.33;;;0.52;;
64208;SDS011;50527;52.414;13.226;2023-07-13T12:37:54;5.05;;;0.45;;
64208;SDS011;50527;52.414;13.226;2023-07-13T12:40:25;3.42;;;0.60;;
64208;SDS011;50527;52.414;13.226;2023-07-13T12:42:58;0.98;;;0.40;;
64208;SDS011;50527;52.414;13.226;2023-07-13T12:45:27;2.05;;;0.35;;
64208;SDS011;50527;52.414;13.226;2023-07-13T12:47:54;3.50;;;0.40;;
64208;SDS011;50527;52.414;13.226;2023-07-13T12:50:24;2.90;;;0.47;;
64208;SDS011;50527;52.414;13.226;2023-07-13T12:52:59;3.25;;;0.60;;
64208;SDS011;50527;52.414;13.226;2023-07-13T12:55:32;1.98;;;0.43;;
64208;SDS011;50527;52.414;13.226;2023-07-13T12:58:15;3.53;;;0.30;;
64208;SDS011;50527;52.414;13.226;2023-07-13T13:00:53;4.65;;;0.52;;
64208;SDS011;50527;52.414;13.226;2023-07-13T13:03:22;2.65;;;0.55;;
64208;SDS011;50527;52.414;13.226;2023-07-13T13:08:46;1.70;;;0.28;;
64208;SDS011;50527;52.414;13.226;2023-07-13T13:11:13;2.90;;;0.30;;
64208;SDS011;50527;52.414;13.226;2023-07-13T13:13:41;0.95;;;0.20;;
64208;SDS011;50527;52.414;13.226;2023-07-13T13:18:44;0.95;;;0.32;;
64208;SDS011;50527;52.414;13.226;2023-07-13T13:21:10;1.10;;;0.28;;
64208;SDS011;50527;52.414;13.226;2023-07-13T13:23:36;3.60;;;0.30;;
64208;SDS011;50527;52.414;13.226;2023-07-13T13:26:02;1.42;;;0.40;;
64208;SDS011;50527;52.414;13.226;2023-07-13T13:28:28;1.38;;;0.30;;
64208;SDS011;50527;52.414;13.226;2023-07-13T13:30:54;2.00;;;0.40;;
64208;SDS011;50527;52.414;13.226;2023-07-13T13:33:20;1.00;;;0.30;;
64208;SDS011;50527;52.414;13.226;2023-07-13T13:35:46;2.38;;;0.35;;
64208;SDS011;50527;52.414;13.226;2023-07-13T13:38:13;1.75;;;0.30;;
64208;SDS011;50527;52.414;13.226;2023-07-13T13:40:40;2.75;;;0.45;;
64208;SDS011;50527;52.414;13.226;2023-07-13T13:46:02;1.23;;;0.40;;
64208;SDS011;50527;52.414;13.226;2023-07-13T13:48:37;0.88;;;0.20;;
64208;SDS011;50527;52.414;13.226;2023-07-13T13:51:11;4.15;;;0.50;;
64208;SDS011;50527;52.414;13.226;2023-07-13T13:53:40;2.85;;;0.50;;
64208;SDS011;50527;52.414;13.226;2023-07-13T13:56:05;3.78;;;0.55;;
64208;SDS011;50527;52.414;13.226;2023-07-13T13:58:31;1.95;;;0.40;;
64208;SDS011;50527;52.414;13.226;2023-07-13T14:00:56;2.65;;;0.20;;
64208;SDS011;50527;52.414;13.226;2023-07-13T14:03:23;5.05;;;0.30;;
64208;SDS011;50527;52.414;13.226;2023-07-13T14:05:49;1.20;;;0.25;;
64208;SDS011;50527;52.414;13.226;2023-07-13T14:08:16;2.53;;;0.30;;
64208;SDS011;50527;52.414;13.226;2023-07-13T14:10:44;5.65;;;1.02;;
64208;SDS011;50527;52.414;13.226;2023-07-13T14:13:17;1.33;;;0.30;;
64208;SDS011;50527;52.414;13.226;2023-07-13T14:15:46;3.67;;;0.32;;
64208;SDS011;50527;52.414;13.226;2023-07-13T14:18:12;0.95;;;0.30;;
64208;SDS011;50527;52.414;13.226;2023-07-13T14:20:42;2.65;;;0.30;;
64208;SDS011;50527;52.414;13.226;2023-07-13T14:23:09;1.73;;;0.30;;
64208;SDS011;50527;52.414;13.226;2023-07-13T14:25:34;3.28;;;0.40;;
64208;SDS011;50527;52.414;13.226;2023-07-13T14:28:04;0.82;;;0.20;;
64208;SDS011;50527;52.414;13.226;2023-07-13T14:30:48;1.50;;;0.30;;
64208;SDS011;50527;52.414;13.226;2023-07-13T14:33:14;2.15;;;0.20;;
64208;SDS011;50527;52.414;13.226;2023-07-13T14:35:40;1.70;;;0.20;;
64208;SDS011;50527;52.414;13.226;2023-07-13T14:38:08;1.85;;;0.40;;
64208;SDS011;50527;52.414;13.226;2023-07-13T14:40:40;4.75;;;0.40;;
64208;SDS011;50527;52.414;13.226;2023-07-13T14:43:08;1.67;;;0.20;;
64208;SDS011;50527;52.414;13.226;2023-07-13T14:45:36;0.35;;;0.10;;
64208;SDS011;50527;52.414;13.226;2023-07-13T14:48:10;2.08;;;0.20;;
64208;SDS011;50527;52.414;13.226;2023-07-13T14:50:57;0.73;;;0.20;;
64208;SDS011;50527;52.414;13.226;2023-07-13T14:53:24;0.75;;;0.10;;
64208;SDS011;50527;52.414;13.226;2023-07-13T14:55:52;0.80;;;0.20;;
64208;SDS011;50527;52.414;13.226;2023-07-13T14:58:18;1.10;;;0.20;;
64208;SDS011;50527;52.414;13.226;2023-07-13T15:00:43;1.75;;;0.20;;
64208;SDS011;50527;52.414;13.226;2023-07-13T15:03:17;0.77;;;0.20;;
64208;SDS011;50527;52.414;13.226;2023-07-13T15:05:47;1.30;;;0.22;;
64208;SDS011;50527;52.414;13.226;2023-07-13T15:08:13;0.73;;;0.20;;
64208;SDS011;50527;52.414;13.226;2023-07-13T15:10:40;0.85;;;0.20;;
64208;SDS011;50527;52.414;13.226;2023-07-13T15:13:16;0.40;;;0.20;;
64208;SDS011;50527;52.414;13.226;2023-07-13T15:15:44;0.55;;;0.10;;
64208;SDS011;50527;52.414;13.226;2023-07-13T15:18:11;0.95;;;0.20;;
64208;SDS011;50527;52.414;13.226;2023-07-13T15:20:38;0.63;;;0.20;;
64208;SDS011;50527;52.414;13.226;2023-07-13T15:23:04;5.28;;;0.30;;
64208;SDS011;50527;52.414;13.226;2023-07-13T15:25:30;0.30;;;0.20;;
64208;SDS011;50527;52.414;13.226;2023-07-13T15:27:58;2.10;;;0.50;;